createdAt,value
2022-10-09T00:00:22.765Z,80.20
2022-10-09T00:03:24.963Z,80.20
2022-10-09T00:06:30.945Z,80.20
2022-10-09T00:09:36.261Z,80.10
2022-10-09T00:12:38.542Z,80.20
2022-10-09T00:15:42.540Z,80.20
2022-10-09T00:18:44.766Z,80.20
2022-10-09T00:21:46.882Z,80.20
2022-10-09T00:24:49.216Z,80.20
2022-10-09T00:27:51.343Z,80.20
2022-10-09T00:30:54.190Z,80.20
2022-10-09T00:33:56.752Z,80.30
2022-10-09T00:36:58.850Z,80.40
2022-10-09T00:40:01.074Z,80.30
2022-10-09T00:43:04.747Z,80.50
2022-10-09T00:46:09.539Z,80.40
2022-10-09T00:49:34.420Z,80.40
2022-10-09T00:52:36.752Z,80.40
2022-10-09T00:55:39.975Z,80.50
2022-10-09T00:58:42.224Z,80.50
2022-10-09T01:01:44.717Z,80.50
2022-10-09T01:04:47.139Z,80.60
2022-10-09T01:08:14.763Z,80.50
2022-10-09T01:11:35.493Z,80.60
2022-10-09T01:14:48.977Z,80.60
2022-10-09T01:18:04.765Z,80.60
2022-10-09T01:21:21.024Z,80.50
2022-10-09T01:24:32.399Z,80.60
2022-10-09T01:27:36.223Z,80.60
2022-10-09T01:30:38.817Z,80.70
2022-10-09T01:33:41.665Z,80.70
2022-10-09T01:36:45.082Z,80.70
2022-10-09T01:39:49.363Z,80.70
2022-10-09T01:42:52.076Z,80.70
2022-10-09T01:46:19.022Z,80.70
2022-10-09T01:49:41.330Z,80.70
2022-10-09T01:53:19.361Z,81.40
2022-10-09T01:56:23.118Z,80.70
2022-10-09T01:59:27.356Z,80.90
2022-10-09T02:02:29.778Z,80.90
2022-10-09T02:05:32.753Z,81.00
2022-10-09T02:08:38.845Z,81.00
2022-10-09T02:11:43.533Z,80.90
2022-10-09T02:14:45.967Z,81.00
2022-10-09T02:17:50.579Z,81.10
2022-10-09T02:20:59.528Z,81.10
2022-10-09T02:24:03.302Z,81.10
2022-10-09T02:27:06.544Z,81.00
2022-10-09T02:30:10.961Z,81.20
2022-10-09T02:33:13.104Z,81.10
2022-10-09T02:36:15.357Z,81.10
2022-10-09T02:39:18.324Z,81.10
2022-10-09T02:42:20.542Z,81.20
2022-10-09T02:45:23.053Z,81.20
2022-10-09T02:48:25.276Z,81.20
2022-10-09T02:51:27.682Z,81.10
2022-10-09T02:54:29.937Z,81.20
2022-10-09T02:57:32.101Z,81.20
2022-10-09T03:00:34.178Z,81.20
2022-10-09T03:03:36.460Z,81.20
2022-10-09T03:06:38.627Z,81.20
2022-10-09T03:09:40.771Z,81.40
2022-10-09T03:12:42.869Z,81.30
2022-10-09T03:15:44.960Z,81.30
2022-10-09T03:18:48.495Z,81.30
2022-10-09T03:21:50.644Z,81.30
2022-10-09T03:24:52.774Z,81.40
2022-10-09T03:27:54.893Z,81.40
2022-10-09T03:30:57.248Z,81.40
2022-10-09T03:33:59.387Z,81.30
2022-10-09T03:37:01.496Z,81.40
2022-10-09T03:40:04.395Z,81.40
2022-10-09T03:43:07.120Z,81.40
2022-10-09T03:46:10.831Z,81.40
2022-10-09T03:49:13.450Z,81.50
2022-10-09T03:52:15.553Z,81.40
2022-10-09T03:55:17.748Z,81.40
2022-10-09T03:58:19.849Z,81.40
2022-10-09T04:01:22.071Z,81.40
2022-10-09T04:04:24.354Z,81.50
2022-10-09T04:07:26.463Z,81.50
2022-10-09T04:10:28.708Z,81.50
2022-10-09T04:13:31.033Z,81.60
2022-10-09T04:16:33.224Z,81.60
2022-10-09T04:19:36.385Z,81.60
2022-10-09T04:22:38.718Z,81.60
2022-10-09T04:25:40.899Z,81.60
2022-10-09T04:28:43.745Z,81.50
2022-10-09T04:31:46.210Z,81.40
2022-10-09T04:34:48.448Z,81.50
2022-10-09T04:37:50.703Z,81.50
2022-10-09T04:41:00.829Z,81.50
2022-10-09T04:44:02.802Z,81.60
2022-10-09T04:47:08.132Z,81.40
2022-10-09T04:50:12.685Z,81.60
2022-10-09T04:53:15.217Z,81.70
2022-10-09T04:56:20.235Z,81.60
2022-10-09T04:59:22.404Z,81.70
2022-10-09T05:02:24.628Z,81.70
2022-10-09T05:05:26.829Z,81.80
2022-10-09T05:08:30.428Z,81.80
2022-10-09T05:11:32.620Z,81.80
2022-10-09T05:14:34.749Z,81.80
2022-10-09T05:17:36.922Z,81.90
2022-10-09T05:20:42.393Z,81.80
2022-10-09T05:23:45.373Z,81.90
2022-10-09T05:26:47.585Z,81.90
2022-10-09T05:29:49.806Z,81.90
2022-10-09T05:32:52.199Z,81.90
2022-10-09T05:35:59.750Z,82.00
2022-10-09T05:39:02.172Z,82.10
2022-10-09T05:42:04.896Z,82.10
2022-10-09T05:45:08.615Z,82.10
2022-10-09T05:48:10.735Z,82.00
2022-10-09T05:51:16.862Z,82.10
2022-10-09T05:54:19.011Z,82.10
2022-10-09T05:57:21.172Z,82.10
2022-10-09T06:00:23.249Z,82.20
2022-10-09T06:03:25.446Z,82.30
2022-10-09T06:06:30.727Z,82.30
2022-10-09T06:09:32.914Z,82.50
2022-10-09T06:12:35.607Z,82.40
2022-10-09T06:15:37.729Z,82.40
2022-10-09T06:18:49.121Z,82.60
2022-10-09T06:21:52.017Z,82.60
2022-10-09T06:24:54.190Z,82.60
2022-10-09T06:27:56.357Z,82.60
2022-10-09T06:31:16.044Z,82.80
2022-10-09T06:34:18.397Z,82.80
2022-10-09T06:37:20.613Z,82.80
2022-10-09T06:40:22.836Z,82.90
2022-10-09T06:43:25.049Z,83.00
2022-10-09T06:46:30.987Z,83.10
2022-10-09T06:49:33.384Z,83.10
2022-10-09T06:52:35.461Z,83.30
2022-10-09T06:55:37.576Z,83.40
2022-10-09T06:58:40.608Z,83.30
2022-10-09T07:01:42.907Z,83.40
2022-10-09T07:04:46.973Z,83.50
2022-10-09T07:07:49.124Z,83.60
2022-10-09T07:10:51.294Z,83.50
2022-10-09T07:13:56.334Z,83.50
2022-10-09T07:16:58.531Z,83.60
2022-10-09T07:20:00.701Z,83.60
2022-10-09T07:23:03.327Z,83.40
2022-10-09T07:26:17.411Z,83.50
2022-10-09T07:29:20.133Z,83.40
2022-10-09T07:32:22.368Z,83.50
2022-10-09T07:35:24.638Z,83.60
2022-10-09T07:38:27.580Z,83.50
2022-10-09T07:41:30.046Z,83.50
2022-10-09T07:44:32.328Z,83.60
2022-10-09T07:47:34.470Z,83.60
2022-10-09T07:50:36.894Z,83.80
2022-10-09T07:53:39.329Z,83.70
2022-10-09T07:56:41.480Z,83.70
2022-10-09T07:59:43.635Z,83.80
2022-10-09T08:02:46.091Z,83.90
2022-10-09T08:05:55.907Z,83.80
2022-10-09T08:09:00.287Z,83.90
2022-10-09T08:12:02.367Z,84.00
2022-10-09T08:15:04.931Z,84.00
2022-10-09T08:18:06.984Z,84.00
2022-10-09T08:21:13.095Z,83.90
2022-10-09T08:24:15.246Z,84.10
2022-10-09T08:27:17.404Z,84.10
2022-10-09T08:30:19.739Z,84.00
2022-10-09T08:33:25.009Z,84.20
2022-10-09T08:36:28.005Z,84.10
2022-10-09T08:39:31.244Z,84.10
2022-10-09T08:42:51.711Z,84.20
2022-10-09T08:45:55.036Z,83.90
2022-10-09T08:48:58.534Z,84.00
2022-10-09T08:52:28.011Z,84.00
2022-10-09T08:55:37.007Z,83.90
2022-10-09T08:58:41.413Z,84.00
2022-10-09T09:01:58.172Z,83.80
2022-10-09T09:05:29.661Z,83.70
2022-10-09T09:08:38.174Z,83.60
2022-10-09T09:12:06.731Z,83.50
2022-10-09T09:15:14.711Z,83.50
2022-10-09T09:18:26.972Z,83.50
2022-10-09T09:21:41.095Z,83.30
2022-10-09T09:24:53.495Z,83.30
2022-10-09T09:28:00.065Z,83.20
2022-10-09T09:31:14.270Z,83.20
2022-10-09T09:34:40.511Z,83.00
2022-10-09T09:37:42.768Z,82.90
2022-10-09T09:40:47.197Z,82.80
2022-10-09T09:43:49.918Z,82.70
2022-10-09T09:46:53.067Z,82.60
2022-10-09T09:50:01.059Z,82.50
2022-10-09T09:53:13.135Z,82.50
2022-10-09T09:56:16.623Z,82.40
2022-10-09T09:59:43.324Z,82.30
2022-10-09T10:02:45.594Z,82.30
2022-10-09T10:05:48.267Z,82.00
2022-10-09T10:09:00.482Z,81.60
2022-10-09T10:12:04.078Z,81.20
2022-10-09T10:15:06.639Z,80.90
2022-10-09T10:18:16.205Z,80.70
2022-10-09T10:21:20.209Z,80.70
2022-10-09T10:24:31.848Z,80.80
2022-10-09T10:27:42.697Z,80.60
2022-10-09T10:30:45.737Z,80.70
2022-10-09T10:33:54.918Z,80.70
2022-10-09T10:37:07.300Z,80.90
2022-10-09T10:40:18.119Z,80.90
2022-10-09T10:43:23.392Z,80.80
2022-10-09T10:46:52.539Z,80.70
2022-10-09T10:49:54.844Z,80.60
2022-10-09T10:53:38.084Z,80.30
2022-10-09T10:57:01.405Z,80.20
2022-10-09T11:00:09.859Z,80.10
2022-10-09T11:03:17.890Z,80.10
2022-10-09T11:06:23.106Z,80.10
2022-10-09T11:09:35.147Z,80.00
2022-10-09T11:12:48.733Z,80.00
2022-10-09T11:16:28.410Z,79.90
2022-10-09T11:19:45.395Z,79.60
2022-10-09T11:23:06.018Z,79.40
2022-10-09T11:26:25.298Z,79.30
2022-10-09T11:29:37.358Z,79.00
2022-10-09T11:32:52.647Z,78.70
2022-10-09T11:36:16.844Z,78.60
2022-10-09T11:39:26.008Z,78.60
2022-10-09T11:42:29.422Z,78.40
2022-10-09T11:45:51.462Z,78.30
2022-10-09T11:48:59.423Z,78.30
2022-10-09T11:52:15.901Z,77.80
2022-10-09T11:55:24.927Z,77.80
2022-10-09T11:58:27.077Z,77.70
2022-10-09T12:01:37.119Z,77.40
2022-10-09T12:04:55.667Z,78.40
2022-10-09T12:08:08.539Z,77.80
2022-10-09T12:11:17.043Z,78.00
2022-10-09T12:14:25.657Z,77.90
2022-10-09T12:17:27.919Z,77.90
2022-10-09T12:20:30.657Z,78.00
2022-10-09T12:23:36.048Z,77.90
2022-10-09T12:26:40.269Z,77.70
2022-10-09T12:29:47.977Z,78.20
2022-10-09T12:32:55.413Z,76.60
2022-10-09T12:36:12.450Z,75.50
2022-10-09T12:39:23.745Z,74.00
2022-10-09T12:42:27.076Z,73.00
2022-10-09T12:45:31.850Z,72.40
2022-10-09T12:48:39.588Z,72.10
2022-10-09T12:51:41.804Z,72.30
2022-10-09T12:54:45.277Z,72.70
2022-10-09T12:57:47.782Z,73.20
2022-10-09T13:01:14.713Z,73.50
2022-10-09T13:04:33.054Z,74.20
2022-10-09T13:07:35.470Z,74.20
2022-10-09T13:10:37.666Z,74.30
2022-10-09T13:13:52.148Z,74.20
2022-10-09T13:16:55.000Z,74.50
2022-10-09T13:20:00.610Z,74.70
2022-10-09T13:23:05.812Z,74.80
2022-10-09T13:26:13.758Z,74.60
2022-10-09T13:29:15.918Z,74.70
2022-10-09T13:32:18.594Z,74.40
2022-10-09T13:35:20.895Z,74.40
2022-10-09T13:38:24.087Z,74.20
2022-10-09T13:41:26.303Z,74.10
2022-10-09T13:44:28.480Z,74.10
2022-10-09T13:47:30.792Z,74.00
2022-10-09T13:50:33.006Z,74.00
2022-10-09T13:53:35.475Z,74.30
2022-10-09T13:56:37.660Z,74.20
2022-10-09T13:59:39.895Z,74.00
2022-10-09T14:02:42.201Z,74.30
2022-10-09T14:05:45.148Z,74.20
2022-10-09T14:08:47.411Z,74.50
2022-10-09T14:11:49.581Z,74.40
2022-10-09T14:14:53.525Z,74.80
2022-10-09T14:17:55.692Z,74.60
2022-10-09T14:20:57.844Z,74.80
2022-10-09T14:24:02.815Z,74.90
2022-10-09T14:27:06.447Z,74.80
2022-10-09T14:30:09.406Z,74.90
2022-10-09T14:33:12.922Z,75.10
2022-10-09T14:36:19.175Z,74.90
2022-10-09T14:39:21.384Z,75.60
2022-10-09T14:42:23.522Z,74.90
2022-10-09T14:45:25.673Z,74.90
2022-10-09T14:48:27.794Z,74.90
2022-10-09T14:51:36.014Z,74.90
2022-10-09T14:54:38.898Z,74.90
2022-10-09T14:57:41.108Z,74.80
2022-10-09T15:00:47.612Z,75.10
2022-10-09T15:03:55.859Z,74.80
2022-10-09T15:06:58.099Z,75.00
2022-10-09T15:10:00.321Z,74.90
2022-10-09T15:13:02.455Z,74.80
2022-10-09T15:16:08.145Z,74.80
2022-10-09T15:19:13.960Z,74.80
2022-10-09T15:22:16.156Z,74.70
2022-10-09T15:25:18.315Z,74.70
2022-10-09T15:28:21.008Z,74.80
2022-10-09T15:31:37.252Z,74.60
2022-10-09T15:34:41.226Z,74.70
2022-10-09T15:40:54.365Z,74.60
2022-10-09T15:43:59.408Z,74.50
2022-10-09T15:47:01.561Z,74.70
2022-10-09T15:50:04.147Z,74.40
2022-10-09T15:53:11.087Z,74.40
2022-10-09T15:56:16.319Z,74.20
2022-10-09T15:59:25.842Z,74.20
2022-10-09T16:02:27.956Z,74.40
2022-10-09T16:05:30.303Z,74.30
2022-10-09T16:08:32.790Z,74.30
2022-10-09T16:11:34.987Z,74.20
2022-10-09T16:14:38.426Z,74.20
2022-10-09T16:17:40.618Z,74.20
2022-10-09T16:20:43.199Z,74.20
2022-10-09T16:23:46.153Z,74.30
2022-10-09T16:26:50.985Z,74.20
2022-10-09T16:29:53.078Z,74.20
2022-10-09T16:32:55.334Z,74.20
2022-10-09T16:36:11.363Z,74.20
2022-10-09T16:39:13.479Z,74.40
2022-10-09T16:42:16.872Z,74.20
2022-10-09T16:45:19.078Z,74.20
2022-10-09T16:48:21.387Z,74.70
2022-10-09T16:51:29.568Z,73.90
2022-10-09T16:54:31.757Z,74.00
2022-10-09T16:57:33.962Z,74.00
2022-10-09T17:00:36.194Z,74.40
2022-10-09T17:03:42.519Z,74.30
2022-10-09T17:06:45.726Z,74.40
2022-10-09T17:09:47.830Z,74.20
2022-10-09T17:12:50.200Z,74.90
2022-10-09T17:15:53.003Z,74.20
2022-10-09T17:18:55.595Z,74.20
2022-10-09T17:21:57.732Z,74.20
2022-10-09T17:24:59.948Z,74.10
2022-10-09T17:28:07.712Z,74.30
2022-10-09T17:31:14.331Z,74.20
2022-10-09T17:34:16.881Z,74.20
2022-10-09T17:37:18.991Z,74.30
2022-10-09T17:40:21.096Z,74.20
2022-10-09T17:43:23.207Z,74.30
2022-10-09T17:46:28.208Z,74.50
2022-10-09T17:49:30.382Z,74.40
2022-10-09T17:52:32.562Z,74.40
2022-10-09T17:55:38.628Z,74.50
2022-10-09T17:58:41.081Z,74.40
2022-10-09T18:01:43.396Z,74.50
2022-10-09T18:04:45.631Z,74.50
2022-10-09T18:07:48.167Z,74.50
2022-10-09T18:11:02.263Z,74.50
2022-10-09T18:14:04.479Z,74.50
2022-10-09T18:17:07.803Z,74.50
2022-10-09T18:20:11.213Z,74.60
2022-10-09T18:23:13.835Z,74.50
2022-10-09T18:26:19.566Z,74.60
2022-10-09T18:29:21.698Z,74.60
2022-10-09T18:32:23.794Z,74.50
2022-10-09T18:35:26.801Z,74.40
2022-10-09T18:38:28.918Z,74.40
2022-10-09T18:41:31.110Z,75.20
2022-10-09T18:44:40.202Z,74.40
2022-10-09T18:47:42.725Z,74.60
2022-10-09T18:50:45.297Z,74.50
2022-10-09T18:53:55.980Z,74.50
2022-10-09T18:56:58.371Z,74.50
2022-10-09T19:00:01.869Z,74.50
2022-10-09T19:03:04.333Z,74.60
2022-10-09T19:06:06.854Z,74.50
2022-10-09T19:09:08.961Z,74.40
2022-10-09T19:12:11.140Z,74.60
2022-10-09T19:15:13.233Z,74.60
2022-10-09T19:18:15.588Z,74.40
2022-10-09T19:21:17.642Z,74.50
2022-10-09T19:24:19.757Z,74.40
2022-10-09T19:27:26.344Z,74.40
2022-10-09T19:30:28.799Z,74.40
2022-10-09T19:33:31.232Z,74.60
2022-10-09T19:36:36.647Z,74.40
2022-10-09T19:39:38.926Z,74.50
2022-10-09T19:42:41.030Z,74.40
2022-10-09T19:45:43.462Z,74.50
2022-10-09T19:48:45.975Z,74.50
2022-10-09T19:51:49.438Z,74.60
2022-10-09T19:54:51.743Z,74.60
2022-10-09T19:57:53.872Z,74.40
2022-10-09T20:00:56.070Z,74.50
2022-10-09T20:04:00.859Z,74.40
2022-10-09T20:07:03.042Z,74.50
2022-10-09T20:10:05.551Z,74.40
2022-10-09T20:13:07.729Z,74.50
2022-10-09T20:16:12.973Z,74.50
2022-10-09T20:19:15.104Z,74.60
2022-10-09T20:22:17.457Z,74.60
2022-10-09T20:25:20.110Z,74.40
2022-10-09T20:28:22.498Z,74.50
2022-10-09T20:31:26.383Z,74.50
2022-10-09T20:34:28.595Z,74.70
2022-10-09T20:37:31.773Z,74.50
2022-10-09T20:40:34.288Z,74.50
2022-10-09T20:43:36.775Z,74.60
2022-10-09T20:46:40.178Z,74.50
2022-10-09T20:49:43.734Z,74.40
2022-10-09T20:52:45.948Z,74.50
2022-10-09T20:55:48.092Z,74.40
2022-10-09T20:58:50.370Z,74.50
2022-10-09T21:01:52.535Z,74.40
2022-10-09T21:05:00.879Z,74.50
2022-10-09T21:08:04.031Z,74.50
2022-10-09T21:11:08.872Z,74.50
2022-10-09T21:14:14.445Z,74.40
2022-10-09T21:17:16.625Z,74.40
2022-10-09T21:20:18.804Z,74.30
2022-10-09T21:23:20.945Z,74.30
2022-10-09T21:26:24.416Z,74.30
2022-10-09T21:29:27.201Z,74.20
2022-10-09T21:32:29.536Z,74.00
2022-10-09T21:35:31.731Z,74.00
2022-10-09T21:38:33.964Z,74.00
2022-10-09T21:41:37.244Z,73.90
2022-10-09T21:44:39.440Z,73.80
2022-10-09T21:47:56.259Z,73.80
2022-10-09T21:50:58.514Z,73.70
2022-10-09T21:54:00.655Z,73.50
2022-10-09T21:57:02.960Z,73.50
2022-10-09T22:00:06.271Z,73.70
2022-10-09T22:03:09.167Z,73.50
2022-10-09T22:06:18.444Z,73.50
2022-10-09T22:09:21.687Z,73.30
2022-10-09T22:12:23.912Z,73.30
2022-10-09T22:15:26.049Z,73.10
2022-10-09T22:18:28.161Z,73.20
2022-10-09T22:21:30.484Z,73.20
2022-10-09T22:24:32.623Z,73.10
2022-10-09T22:27:34.913Z,73.10
2022-10-09T22:30:37.086Z,73.00
2022-10-09T22:33:39.611Z,72.90
2022-10-09T22:36:42.053Z,72.80
2022-10-09T22:39:45.291Z,73.00
2022-10-09T22:42:47.752Z,73.00
2022-10-09T22:45:50.177Z,72.90
2022-10-09T22:48:53.102Z,72.80
2022-10-09T22:51:55.321Z,72.80
2022-10-09T22:54:57.524Z,72.90
2022-10-09T22:57:59.740Z,72.60
2022-10-09T23:01:08.884Z,72.80
2022-10-09T23:04:13.713Z,72.60
2022-10-09T23:07:15.856Z,72.70
2022-10-09T23:10:18.125Z,72.70
2022-10-09T23:13:21.774Z,72.50
2022-10-09T23:16:25.171Z,72.50
2022-10-09T23:19:27.363Z,72.50
2022-10-09T23:22:29.532Z,72.50
2022-10-09T23:25:31.750Z,72.50
2022-10-09T23:28:35.085Z,72.40
2022-10-09T23:31:38.357Z,72.30
2022-10-09T23:34:41.568Z,72.40
2022-10-09T23:37:43.686Z,72.40
2022-10-09T23:40:55.623Z,72.30
2022-10-09T23:43:57.886Z,72.40
2022-10-09T23:47:00.020Z,72.20
2022-10-09T23:50:02.299Z,72.30
2022-10-09T23:53:04.415Z,72.30
2022-10-09T23:56:25.372Z,72.10
2022-10-09T23:59:27.603Z,72.30
